Latest Weather Observations for Dennes Point

IDT60801

Issued at 8:01 am EDT Sunday 14 February 2016 (issued every 30 minutes, with the page automatically refreshed every 10 minutes)

About weather observations | Map of weather stations | Latest weather observations for TAS | Other Formats
Station Details ID: 094255 Name: DENNES POINT Lat: -43.06 Lon: 147.36 Height: 5.67 m
Data from the previous 72 hours. | See also: Recent months at Dennes Point
Date/Time
EDT
Temp
°C
App
Temp
°C
Dew
Point
Rel
Hum
%
Delta-T
°C
Wind Press
QNH
hPa
Press
MSL
hPa
Rain
since 9 am
mm
Dir
 
Spd
km/h
Gust
km/h
Spd
kts
Gust
kts
14/08:00am 15.9 13.8 8.2 60 3.9 NNW 9 28 5 15 1001.7 1001.7 0.0
14/07:30am 16.2 13.1 8.9 62 3.8 NW 15 24 8 13 1001.7 1001.7 0.0
14/07:00am 16.3 12.8 8.8 61 3.9 N 17 24 9 13 1001.1 1001.1 0.0
14/06:30am 16.4 13.7 9.1 62 3.8 N 13 22 7 12 1001.0 1001.0 0.0
14/06:00am 16.2 12.2 8.9 62 3.8 N 20 30 11 16 1000.8 1000.8 0.0
14/05:30am 16.0 13.1 8.2 60 3.9 NNW 13 19 7 10 1000.7 1000.7 0.0
14/05:00am 15.7 12.8 8.2 61 3.8 NNW 13 19 7 10 1000.8 1000.8 0.0
14/04:30am 16.0 11.8 7.5 57 4.2 NW 19 28 10 15 1001.1 1001.1 0.0
14/04:00am 15.8 12.7 7.1 56 4.3 NNW 13 17 7 9 1001.3 1001.3 0.0
14/03:30am 15.8 12.1 6.5 54 4.5 WNW 15 24 8 13 1001.7 1001.7 0.0
14/03:00am 15.7 11.9 5.6 51 4.9 WNW 15 24 8 13 1001.7 1001.7 0.0
14/02:30am 15.7 12.2 5.6 51 4.8 W 13 22 7 12 1002.3 1002.2 0.0
14/02:00am 15.6 10.5 6.1 53 4.6 W 22 28 12 15 1002.3 1002.2 0.0
14/01:30am 16.0 10.9 6.2 52 4.8 W 22 33 12 18 1002.7 1002.6 0.0
14/01:00am 16.4 11.1 6.8 53 4.8 W 24 30 13 16 1002.6 1002.5 0.0
14/12:30am 16.8 10.8 6.9 52 4.9 W 28 33 15 18 1002.5 1002.4 0.0
14/12:00am 17.1 8.5 8.3 56 4.5 W 43 54 23 29 1002.1 1002.0 0.0
 
Date/Time
EDT
Temp
°C
App
Temp
°C
Dew
Point
Rel
Hum
%
Delta-T
°C
Wind Press
QNH
hPa
Press
MSL
hPa
Rain
since 9 am
mm
Dir
 
Spd
km/h
Gust
km/h
Spd
kts
Gust
kts
13/11:30pm 17.0 8.5 9.2 60 4.0 W 44 52 24 28 1002.2 1002.1 0.0
13/11:00pm 17.5 9.2 9.4 59 4.3 W 43 48 23 26 1002.6 1002.5 0.0
13/10:30pm 17.9 10.4 9.5 58 4.4 W 39 54 21 29 1002.4 1002.3 0.0
13/10:00pm 18.6 11.8 10.7 60 4.3 W 37 48 20 26 1002.5 1002.4 0.0
13/09:30pm 18.6 15.1 12.1 66 3.6 WSW 22 41 12 22 1002.1 1002.0 0.0
13/09:00pm 18.4 14.1 12.2 67 3.5 SW 26 35 14 19 1001.2 1001.2 0.0
13/08:30pm 19.3 16.6 13.0 67 3.6 SW 19 28 10 15 1000.8 1000.8 0.0
13/08:00pm 19.0 17.5 14.1 73 2.8 SE 15 26 8 14 1000.6 1000.6 0.0
13/07:30pm 19.8 17.7 13.7 68 3.5 SE 17 35 9 19 1000.3 1000.3 0.0
13/07:00pm 23.8 21.3 13.4 52 6.1 WSW 19 26 10 14 999.5 999.5 0.0
13/06:30pm 24.2 22.1 12.5 48 6.7 W 15 20 8 11 999.7 999.7 0.0
13/06:00pm 24.8 22.6 12.1 45 7.3 WSW 15 19 8 10 999.5 999.5 0.0
13/05:30pm 26.0 20.2 9.4 35 9.1 WSW 30 37 16 20 999.6 999.6 0.0
13/05:00pm 26.2 19.4 10.8 38 8.7 WSW 37 46 20 25 999.5 999.5 0.0
13/04:30pm 26.6 22.4 12.3 41 8.3 W 26 35 14 19 999.9 999.9 0.0
13/04:14pm 26.8 24.0 11.3 38 8.8 W 17 37 9 20 1000.0 1000.0 0.0
13/04:00pm 24.8 23.8 12.4 46 7.2 E 9 13 5 7 1000.2 1000.2 0.0
13/03:30pm 24.0 22.4 15.0 57 5.4 ESE 17 20 9 11 1000.4 1000.4 0.0
13/03:00pm 24.4 22.6 14.5 54 5.9 ESE 17 22 9 12 1000.6 1000.6 0.0
13/02:30pm 24.9 23.4 13.1 48 6.9 ESE 13 19 7 10 1000.7 1000.7 0.0
13/02:00pm 24.3 22.8 11.9 45 7.1 E 11 17 6 9 1001.0 1001.0 0.0
13/01:30pm 25.3 24.4 9.2 36 8.8 W 4 9 2 5 1001.5 1001.5 0.0
13/01:00pm 25.0 24.5 10.8 41 8.0 W 4 11 2 6 1002.1 1002.0 0.0
13/12:30pm 23.8 22.3 10.5 43 7.4 NE 9 13 5 7 1002.6 1002.5 0.0
13/12:00pm 23.4 21.9 11.8 48 6.6 NE 11 13 6 7 1003.2 1003.1 0.0
13/11:30am 22.6 21.2 12.3 52 5.8 NNE 11 15 6 8 1003.5 1003.4 0.0
13/11:00am 21.3 19.4 13.0 59 4.8 N 15 20 8 11 1003.7 1003.6 0.0
13/10:30am 20.9 17.9 10.7 52 5.6 N 17 22 9 12 1003.9 1003.8 0.0
13/10:00am 20.6 17.9 11.8 57 4.9 N 17 22 9 12 1004.0 1003.9 0.0
13/09:30am 20.6 18.3 11.8 57 4.9 NNW 15 22 8 12 1004.4 1004.3 0.0
13/09:00am 19.4 18.4 10.4 56 4.9 WNW 6 13 3 7 1004.7 1004.6 0.0
13/08:30am 19.2 17.8 11.0 59 4.5 WNW 9 15 5 8 1004.9 1004.8 0.0
13/08:00am 18.7 16.6 11.3 62 4.1 WNW 13 24 7 13 1005.0 1004.9 0.0
13/07:30am 17.2 16.8 12.5 74 2.6 SSW 6 6 3 3 1004.7 1004.6 0.0
13/07:00am 17.0 16.4 13.5 80 2.0 SSW 9 15 5 8 1004.8 1004.7 0.0
13/06:30am 16.0 15.3 13.1 83 1.6 SW 9 11 5 6 1004.4 1004.3 0.0
13/06:00am 16.2 16.0 13.1 82 1.7 SSW 6 7 3 4 1004.0 1003.9 0.0
13/05:30am 16.2 17.2 13.1 82 1.7 CALM 0 6 0 3 1003.9 1003.8 0.0
13/05:00am 16.6 17.3 13.3 81 1.9 SW 2 4 1 2 1004.2 1004.1 0.0
13/04:30am 16.4 16.2 12.9 80 1.9 SSW 6 7 3 4 1004.8 1004.7 0.0
13/04:00am 16.4 16.1 13.3 82 1.7 SSW 7 9 4 5 1005.4 1005.3 0.0
13/03:30am 16.9 16.3 13.6 81 1.9 S 9 17 5 9 1005.4 1005.3 0.0
13/03:00am 17.9 17.3 14.6 81 1.9 SE 11 17 6 9 1005.6 1005.5 0.0
13/02:30am 18.5 18.7 14.2 76 2.5 S 6 9 3 5 1006.3 1006.2 0.0
13/02:00am 18.4 18.8 13.7 74 2.7 E 4 7 2 4 1006.5 1006.4 0.0
13/01:30am 17.7 17.7 12.4 71 2.9 W 4 7 2 4 1006.8 1006.7 0.0
13/01:00am 18.6 18.1 12.8 69 3.3 SSW 7 9 4 5 1007.1 1007.0 0.0
13/12:30am 19.2 18.7 12.2 64 3.9 WSW 6 9 3 5 1007.2 1007.1 0.0
13/12:00am 20.5 21.1 13.2 63 4.2 SSW 2 4 1 2 1007.4 1007.3 0.0
 
Date/Time
EDT
Temp
°C
App
Temp
°C
Dew
Point
Rel
Hum
%
Delta-T
°C
Wind Press
QNH
hPa
Press
MSL
hPa
Rain
since 9 am
mm
Dir
 
Spd
km/h
Gust
km/h
Spd
kts
Gust
kts
12/11:30pm 20.5 20.7 14.2 67 3.7 SSW 6 13 3 7 1007.7 1007.6 0.0
12/11:00pm 19.8 18.9 15.9 78 2.3 SW 15 19 8 10 1008.0 1007.9 0.0
12/10:30pm 20.8 20.6 15.8 73 3.0 NW 11 13 6 7 1008.3 1008.2 0.0
12/10:00pm 21.9 20.4 16.2 70 3.4 N 19 24 10 13 1008.5 1008.4 0.0
12/09:30pm 21.6 20.8 17.0 75 2.8 N 17 20 9 11 1008.6 1008.5 0.0
12/09:00pm 21.3 20.6 16.5 74 2.9 NNE 15 22 8 12 1008.7 1008.6 0.0
12/08:30pm 21.5 20.5 16.5 73 3.0 NE 17 20 9 11 1009.0 1008.9 0.0
12/08:00pm 21.7 20.0 16.2 71 3.3 NE 20 26 11 14 1009.2 1009.1 0.0
12/07:30pm 21.9 19.7 16.0 69 3.6 NE 22 28 12 15 1009.2 1009.1 0.0
12/07:00pm 22.5 18.7 15.8 66 4.0 ENE 30 37 16 20 1009.3 1009.2 0.0
12/06:30pm 22.3 19.7 16.8 71 3.4 ENE 26 33 14 18 1009.8 1009.7 0.0
12/06:00pm 22.4 18.5 16.4 69 3.6 E 32 35 17 19 1010.0 1009.9 0.0
12/05:30pm 22.5 17.9 16.1 67 3.9 ENE 35 43 19 23 1010.4 1010.3 0.0
12/05:00pm 22.8 18.3 16.4 67 3.9 ENE 35 43 19 23 1010.7 1010.6 0.0
12/04:30pm 22.4 17.3 15.7 66 4.0 ENE 37 43 20 23 1011.2 1011.1 0.0
12/04:00pm 22.8 18.5 15.9 65 4.2 ENE 33 39 18 21 1011.8 1011.7 0.0
12/03:30pm 22.5 18.3 15.6 65 4.1 E 32 37 17 20 1012.6 1012.5 0.0
12/03:00pm 23.1 19.6 16.4 66 4.1 ENE 30 33 16 18 1012.9 1012.8 0.0
12/02:30pm 22.7 18.6 16.0 66 4.0 ENE 32 37 17 20 1013.2 1013.1 0.0
12/02:00pm 22.3 18.7 15.2 64 4.2 E 28 35 15 19 1013.8 1013.7 0.0
12/01:30pm 23.3 21.6 14.6 58 5.1 NE 17 22 9 12 1014.3 1014.2 0.0
12/01:00pm 22.8 21.6 14.1 58 5.1 NE 13 17 7 9 1014.8 1014.7 0.0
12/12:30pm 21.8 20.7 14.4 63 4.3 NE 13 17 7 9 1015.6 1015.5 0.0
12/12:00pm 21.4 19.5 14.3 64 4.1 NNE 17 24 9 13 1016.3 1016.2 0.0
12/11:30am 20.6 18.9 13.6 64 4.0 NNE 15 20 8 11 1016.6 1016.5 0.0
12/11:00am 19.4 17.6 13.3 68 3.5 NNE 15 20 8 11 1017.3 1017.2 0.0
12/10:30am 19.7 18.4 13.6 68 3.5 NNE 13 19 7 10 1017.5 1017.4 0.0
12/10:00am 18.8 17.1 13.6 72 3.0 NNE 15 20 8 11 1017.6 1017.5 0.0
12/09:30am 18.1 16.5 13.8 76 2.4 NNE 15 19 8 10 1018.0 1017.9 0.0
12/09:00am 17.6 16.3 13.7 78 2.2 NNE 13 17 7 9 1018.3 1018.2 0.0
12/08:30am 17.3 16.0 13.6 79 2.1 NE 13 17 7 9 1018.2 1018.1 0.0
12/08:00am 17.1 15.8 13.6 80 2.0 NNE 13 17 7 9 1018.1 1018.0 0.0
12/07:30am 16.7 15.8 13.6 82 1.7 NE 11 13 6 7 1018.0 1017.9 0.0
12/07:00am 16.6 15.6 13.5 82 1.7 NNE 11 13 6 7 1017.8 1017.7 0.0
12/06:30am 16.3 15.2 13.2 82 1.7 NE 11 13 6 7 1017.6 1017.5 0.0
12/06:00am 16.3 15.6 13.2 82 1.7 NE 9 13 5 7 1017.4 1017.3 0.0
12/05:30am 16.2 15.4 12.9 81 1.8 NE 9 11 5 6 1017.4 1017.3 0.0
12/05:00am 16.3 15.5 13.0 81 1.8 NE 9 11 5 6 1017.5 1017.4 0.0
12/04:30am 16.2 15.7 12.7 80 1.9 NE 7 11 4 6 1017.6 1017.5 0.0
12/04:00am 16.2 15.7 12.6 79 2.0 NE 7 9 4 5 1017.8 1017.7 0.0
12/03:30am 16.2 15.3 12.6 79 2.0 NE 9 13 5 7 1017.9 1017.8 0.0
12/03:00am 16.4 14.7 12.4 77 2.2 NNE 13 15 7 8 1018.0 1017.9 0.0
12/02:30am 16.7 15.2 11.8 73 2.7 NE 11 15 6 8 1018.1 1018.0 0.0
12/02:00am 16.7 16.0 11.4 71 2.9 NE 6 7 3 4 1018.4 1018.3 0.0
12/01:30am 16.9 16.3 11.6 71 2.9 NE 6 13 3 7 1018.6 1018.5 0.0
12/01:00am 16.4 16.6 10.7 69 3.0 CALM 0 0 0 0 1018.8 1018.7 0.0
12/12:30am 16.3 16.6 10.8 70 2.9 CALM 0 0 0 0 1018.9 1018.8 0.0
12/12:00am 16.4 16.6 10.7 69 3.0 CALM 0 0 0 0 1018.9 1018.8 0.0
 
Date/Time
EDT
Temp
°C
App
Temp
°C
Dew
Point
Rel
Hum
%
Delta-T
°C
Wind Press
QNH
hPa
Press
MSL
hPa
Rain
since 9 am
mm
Dir
 
Spd
km/h
Gust
km/h
Spd
kts
Gust
kts
11/11:30pm 16.4 15.9 10.9 70 2.9 SE 4 6 2 3 1019.0 1018.9 0.0
11/11:00pm 16.3 15.8 10.8 70 2.9 SE 4 9 2 5 1019.1 1019.0 0.0
11/10:30pm 16.5 14.4 11.0 70 2.9 ESE 13 19 7 10 1019.0 1018.9 0.0
11/10:00pm 16.7 15.0 11.2 70 3.0 ESE 11 15 6 8 1019.1 1019.0 0.0
11/09:30pm 16.7 14.9 11.0 69 3.1 ESE 11 19 6 10 1018.7 1018.6 0.0
11/09:00pm 16.7 14.9 11.0 69 3.1 SE 11 17 6 9 1018.6 1018.5 0.0
11/08:30pm 16.8 14.6 10.9 68 3.2 ESE 13 19 7 10 1018.2 1018.1 0.0
11/08:00pm 16.8 14.3 10.9 68 3.2 SE 15 20 8 11 1017.9 1017.8 0.0
11/07:30pm 16.9 13.9 10.7 67 3.3 ESE 17 22 9 12 1017.6 1017.5 0.0
11/07:00pm 17.2 13.9 11.0 67 3.3 ESE 19 24 10 13 1017.2 1017.1 0.0
11/06:30pm 17.4 13.9 10.8 65 3.5 ESE 20 26 11 14 1017.0 1016.9 0.0
11/06:00pm 17.4 13.9 10.8 65 3.5 ESE 20 32 11 17 1016.9 1016.8 0.0
11/05:30pm 17.6 14.0 10.5 63 3.8 ESE 20 30 11 16 1016.8 1016.7 0.0
11/05:00pm 18.4 14.0 10.5 60 4.2 ESE 24 32 13 17 1016.7 1016.6 0.0
11/04:30pm 18.1 13.6 10.0 59 4.3 ESE 24 32 13 17 1016.5 1016.4 0.0
11/04:00pm 19.0 14.9 10.0 56 4.8 ESE 22 30 12 16 1016.4 1016.3 0.0
11/03:30pm 19.9 17.0 11.1 57 4.8 SE 17 24 9 13 1016.5 1016.4 0.0
11/03:00pm 18.9 15.5 10.7 59 4.4 SE 19 35 10 19 1016.5 1016.4 0.0
11/02:30pm 19.3 15.2 11.3 60 4.4 ESE 24 35 13 19 1016.6 1016.5 0.0
11/02:00pm 19.2 15.1 11.3 60 4.3 ESE 24 32 13 17 1016.7 1016.6 0.0
11/01:30pm 19.7 16.1 11.7 60 4.4 ESE 22 28 12 15 1016.6 1016.5 0.0
11/01:00pm 19.9 16.4 12.2 61 4.3 ESE 22 28 12 15 1016.5 1016.4 0.0
11/12:30pm 20.0 16.6 10.7 55 5.1 E 19 20 10 11 1016.5 1016.4 0.0
11/12:00pm 20.2 17.3 10.9 55 5.1 ESE 17 20 9 11 1016.5 1016.4 0.0
11/11:30am 20.0 17.3 10.4 54 5.2 E 15 19 8 10 1016.5 1016.4 0.0
11/11:00am 20.3 19.1 9.5 50 5.7 ESE 6 9 3 5 1016.6 1016.5 0.0
11/10:30am 18.9 17.0 7.7 48 5.7 SW 7 15 4 8 1016.7 1016.6 0.0
11/10:00am 19.1 16.3 8.7 51 5.4 WSW 13 17 7 9 1016.8 1016.7 0.0
11/09:30am 18.9 15.6 9.4 54 5.0 SW 17 26 9 14 1016.5 1016.4 0.0
11/09:00am 18.0 16.7 10.1 60 4.2 SW 7 11 4 6 1016.4 1016.3 0.0
11/08:30am 17.4 15.8 10.3 63 3.8 W 9 13 5 7 1016.1 1016.0 0.0

Other Formats:

Comma delimited format used in spreadsheet applications
http://www.bom.gov.au/fwo/IDT60801/IDT60801.94988.axf

JavaScript Object Notation format (JSON) in row-major order
http://www.bom.gov.au/fwo/IDT60801/IDT60801.94988.json